Time;durP1;ratioP1;P1;durP2;ratioP2;P2;SDS_P1;SDS_P2;PMS_P1;PMS_P2;Temp;Humidity;BMP_temperature;BMP_pressure;BME280_temperature;BME280_humidity;BME280_pressure;Samples;Min_cycle;Max_cycle;Signal;HPM_P1;HPM_P2
2023/09/12 00:03:36;;;;;;;;;;;25.60;69.00;;;;;;10405787;28;20530;-68
2023/09/12 00:08:39;;;;;;;;;;;25.60;68.90;;;;;;10409104;28;19934;-68
2023/09/12 00:13:41;;;;;;;;;;;25.60;68.90;;;;;;10415396;28;20020;-68
2023/09/12 00:18:43;;;;;;;;;;;25.60;68.90;;;;;;10415324;28;19933;-68
2023/09/12 00:23:45;;;;;;;;;;;25.60;69.00;;;;;;10413188;28;19933;-69
2023/09/12 00:28:47;;;;;;;;;;;25.60;68.90;;;;;;10407404;28;20439;-68
2023/09/12 00:33:48;;;;;;;;;;;25.60;69.00;;;;;;10402404;28;19933;-68
2023/09/12 00:38:51;;;;;;;;;;;25.50;68.90;;;;;;10416827;28;19934;-68
2023/09/12 00:43:53;;;;;;;;;;;25.60;69.00;;;;;;10413702;28;20453;-69
2023/09/12 00:48:57;;;;;;;;;;;25.60;69.00;;;;;;10429562;28;19934;-69
2023/09/12 00:53:58;;;;;;;;;;;25.50;68.90;;;;;;10413571;28;20783;-67
2023/09/12 00:59:01;;;;;;;;;;;25.50;68.90;;;;;;10414336;28;19988;-67
2023/09/12 01:04:03;;;;;;;;;;;25.50;68.90;;;;;;10408379;28;19933;-67
2023/09/12 01:09:05;;;;;;;;;;;25.50;69.00;;;;;;10412666;28;19941;-67
2023/09/12 01:14:07;;;;;;;;;;;25.50;68.90;;;;;;10414527;28;19934;-68
2023/09/12 01:19:14;;;;;;;;;;;25.50;68.90;;;;;;10422083;28;19934;-67
2023/09/12 01:24:42;;;;;;;;;;;25.50;68.90;;;;;;10413864;28;19940;-68
2023/09/12 01:29:45;;;;;;;;;;;25.50;68.90;;;;;;10415531;28;19933;-68
2023/09/12 01:34:47;;;;;;;;;;;25.40;68.80;;;;;;10423548;28;20379;-68
2023/09/12 01:39:49;;;;;;;;;;;25.40;68.80;;;;;;10412441;28;19940;-68
2023/09/12 01:44:55;;;;;;;;;;;25.40;68.80;;;;;;10414665;28;19940;-68
2023/09/12 01:49:58;;;;;;;;;;;25.40;68.80;;;;;;10411208;28;20667;-67
2023/09/12 01:55:01;;;;;;;;;;;25.40;68.80;;;;;;10412439;28;19940;-67
2023/09/12 02:00:03;;;;;;;;;;;25.40;68.60;;;;;;10418773;28;19933;-68
2023/09/12 02:05:14;;;;;;;;;;;25.50;68.60;;;;;;10428107;28;19933;-67
2023/09/12 02:10:15;;;;;;;;;;;25.40;68.60;;;;;;10413385;28;19938;-67
2023/09/12 02:15:17;;;;;;;;;;;25.40;68.50;;;;;;10412501;28;19933;-67
2023/09/12 02:20:19;;;;;;;;;;;25.40;68.50;;;;;;10411640;28;20023;-68
2023/09/12 02:25:21;;;;;;;;;;;25.40;68.50;;;;;;10411935;28;19933;-68
2023/09/12 02:30:23;;;;;;;;;;;25.40;68.40;;;;;;10412236;28;19941;-68
2023/09/12 02:35:27;;;;;;;;;;;25.40;68.40;;;;;;10410176;28;20076;-68
2023/09/12 02:40:28;;;;;;;;;;;25.40;68.30;;;;;;10409781;28;19940;-68
2023/09/12 02:45:30;;;;;;;;;;;25.40;68.20;;;;;;10427660;28;19933;-68
2023/09/12 02:50:32;;;;;;;;;;;25.50;68.30;;;;;;10409291;28;19952;-68
2023/09/12 02:55:33;;;;;;;;;;;25.40;68.20;;;;;;10411716;28;19940;-68
2023/09/12 03:00:39;;;;;;;;;;;25.40;68.20;;;;;;10410355;28;19933;-68
2023/09/12 03:05:41;;;;;;;;;;;25.40;68.10;;;;;;10409534;28;20687;-67
2023/09/12 03:10:43;;;;;;;;;;;25.40;68.00;;;;;;10413579;28;19934;-68
2023/09/12 03:15:44;;;;;;;;;;;25.40;68.00;;;;;;10407642;28;20477;-68
2023/09/12 03:20:46;;;;;;;;;;;25.40;68.00;;;;;;10412129;28;20578;-68
2023/09/12 03:25:48;;;;;;;;;;;25.40;68.00;;;;;;10409973;28;19933;-68
2023/09/12 03:30:49;;;;;;;;;;;25.30;68.00;;;;;;10411074;28;19940;-68
2023/09/12 03:35:51;;;;;;;;;;;25.30;68.00;;;;;;10415691;28;20027;-68
2023/09/12 03:40:53;;;;;;;;;;;25.30;67.90;;;;;;10410581;28;19941;-67
2023/09/12 03:45:57;;;;;;;;;;;25.30;67.90;;;;;;10398099;28;20439;-67
2023/09/12 03:50:59;;;;;;;;;;;25.30;67.90;;;;;;10409007;28;20499;-67
2023/09/12 03:56:01;;;;;;;;;;;25.30;68.90;;;;;;10421658;28;20320;-67
2023/09/12 04:01:03;;;;;;;;;;;25.30;67.90;;;;;;10402171;28;19933;-67
2023/09/12 04:06:04;;;;;;;;;;;25.30;67.90;;;;;;10409043;28;20679;-68
2023/09/12 04:11:06;;;;;;;;;;;25.30;67.80;;;;;;10407282;28;19934;-68
2023/09/12 04:16:08;;;;;;;;;;;25.30;67.80;;;;;;10407930;28;19939;-67
2023/09/12 04:21:11;;;;;;;;;;;25.20;67.80;;;;;;10401640;28;19933;-68
2023/09/12 04:26:12;;;;;;;;;;;25.20;67.70;;;;;;10405445;28;19933;-68
2023/09/12 04:31:14;;;;;;;;;;;25.20;67.80;;;;;;10401716;28;19933;-68
2023/09/12 04:36:16;;;;;;;;;;;25.20;67.70;;;;;;10407104;28;20286;-68
2023/09/12 04:41:18;;;;;;;;;;;25.20;67.70;;;;;;10398382;28;19940;-68
2023/09/12 04:51:40;;;;;;;;;;;25.20;67.70;;;;;;9327381;22;20491;-66
2023/09/12 04:56:42;;;;;;;;;;;25.20;67.70;;;;;;10335495;28;19934;-67
2023/09/12 05:01:44;;;;;;;;;;;25.20;67.60;;;;;;10341749;28;19934;-67
2023/09/12 05:06:46;;;;;;;;;;;25.20;67.60;;;;;;10361572;28;20408;-67
2023/09/12 05:11:48;;;;;;;;;;;25.20;67.70;;;;;;10354969;28;20084;-67
2023/09/12 05:16:50;;;;;;;;;;;25.20;67.50;;;;;;10363097;28;20187;-68
2023/09/12 05:21:51;;;;;;;;;;;25.20;67.50;;;;;;10369958;28;20834;-68
2023/09/12 05:26:53;;;;;;;;;;;25.20;67.40;;;;;;10374628;28;19933;-68
2023/09/12 05:31:55;;;;;;;;;;;25.20;68.10;;;;;;10366283;28;19940;-68
2023/09/12 05:36:57;;;;;;;;;;;25.20;68.00;;;;;;10383088;28;20255;-69
2023/09/12 05:42:00;;;;;;;;;;;25.10;67.80;;;;;;10357444;28;19938;-67
2023/09/12 05:47:02;;;;;;;;;;;25.00;67.20;;;;;;10360163;28;19940;-66
2023/09/12 05:52:05;;;;;;;;;;;25.00;70.10;;;;;;10365331;28;20396;-69
2023/09/12 05:57:07;;;;;;;;;;;24.90;67.40;;;;;;10347330;28;20755;-67
2023/09/12 06:02:09;;;;;;;;;;;24.80;67.20;;;;;;10368920;28;19961;-67
2023/09/12 06:07:12;;;;;;;;;;;24.70;67.30;;;;;;10335419;28;19938;-69
2023/09/12 06:12:14;;;;;;;;;;;24.70;67.60;;;;;;10345726;28;19934;-68
2023/09/12 06:17:16;;;;;;;;;;;24.60;68.20;;;;;;10356911;28;19934;-68
2023/09/12 06:22:19;;;;;;;;;;;24.50;68.20;;;;;;10360894;28;20862;-68
2023/09/12 06:27:21;;;;;;;;;;;24.50;68.40;;;;;;10360820;28;20615;-67
2023/09/12 06:32:23;;;;;;;;;;;24.40;68.60;;;;;;10348866;28;20023;-65
2023/09/12 06:37:24;;;;;;;;;;;24.40;68.90;;;;;;10357754;28;19940;-67
2023/09/12 06:42:26;;;;;;;;;;;24.30;69.10;;;;;;10353928;28;19934;-68
2023/09/12 06:47:28;;;;;;;;;;;24.30;69.10;;;;;;10353542;28;20024;-67
2023/09/12 06:52:32;;;;;;;;;;;24.20;69.40;;;;;;10372999;28;20489;-67
2023/09/12 06:57:34;;;;;;;;;;;24.20;69.80;;;;;;10349711;28;20468;-68
2023/09/12 07:02:36;;;;;;;;;;;24.20;70.90;;;;;;10354664;28;19982;-69
2023/09/12 07:07:38;;;;;;;;;;;24.20;70.60;;;;;;10343707;28;20874;-69
2023/09/12 07:12:40;;;;;;;;;;;24.10;70.70;;;;;;10343846;28;20041;-70
2023/09/12 07:17:43;;;;;;;;;;;24.10;70.70;;;;;;10344423;28;19957;-68
2023/09/12 07:22:45;;;;;;;;;;;24.10;70.80;;;;;;10369703;28;20436;-68
2023/09/12 07:27:46;;;;;;;;;;;24.10;71.40;;;;;;10342634;28;19941;-68
2023/09/12 07:32:48;;;;;;;;;;;24.20;71.50;;;;;;10343654;28;19937;-68
2023/09/12 07:37:50;;;;;;;;;;;24.20;71.10;;;;;;10339036;28;19996;-68
2023/09/12 07:42:52;;;;;;;;;;;24.40;70.90;;;;;;10356752;28;19933;-69
2023/09/12 07:47:54;;;;;;;;;;;24.40;70.50;;;;;;10342811;28;19930;-68
2023/09/12 07:52:55;;;;;;;;;;;24.50;70.30;;;;;;10344563;28;19934;-67
2023/09/12 07:57:59;;;;;;;;;;;24.50;70.20;;;;;;10365867;28;19941;-69
2023/09/12 08:03:03;;;;;;;;;;;24.60;70.00;;;;;;10356738;28;20309;-69
2023/09/12 08:08:06;;;;;;;;;;;24.60;69.90;;;;;;10355066;28;19938;-70
2023/09/12 08:13:08;;;;;;;;;;;24.60;69.70;;;;;;10345352;28;20024;-68
2023/09/12 08:18:10;;;;;;;;;;;24.70;69.80;;;;;;10351034;28;20716;-69
2023/09/12 08:23:13;;;;;;;;;;;24.70;69.70;;;;;;10345744;28;19965;-68
2023/09/12 08:28:14;;;;;;;;;;;24.70;69.70;;;;;;10336013;28;19940;-69
2023/09/12 08:33:16;;;;;;;;;;;24.70;69.60;;;;;;10348481;28;19933;-68
2023/09/12 08:38:18;;;;;;;;;;;24.70;69.60;;;;;;10364638;28;20114;-68
2023/09/12 08:43:20;;;;;;;;;;;24.70;69.60;;;;;;10369452;28;20932;-69
2023/09/12 08:48:23;;;;;;;;;;;24.70;69.60;;;;;;10359537;28;20316;-68
2023/09/12 08:53:25;;;;;;;;;;;24.70;69.70;;;;;;10349601;28;20040;-69
2023/09/12 08:58:27;;;;;;;;;;;24.70;69.70;;;;;;10366381;28;19941;-69
2023/09/12 09:03:31;;;;;;;;;;;24.70;69.70;;;;;;10349667;28;19934;-69
2023/09/12 09:08:33;;;;;;;;;;;24.70;69.80;;;;;;10386010;28;20443;-69
2023/09/12 09:13:35;;;;;;;;;;;24.80;69.80;;;;;;10358089;28;19940;-68
2023/09/12 09:18:57;;;;;;;;;;;24.80;69.90;;;;;;10348003;28;19940;-68
2023/09/12 09:24:01;;;;;;;;;;;24.80;69.90;;;;;;10348762;28;19938;-68
2023/09/12 09:29:07;;;;;;;;;;;24.80;69.90;;;;;;10364727;28;21299;-68
2023/09/12 09:34:13;;;;;;;;;;;24.70;69.90;;;;;;10359272;28;19933;-68
2023/09/12 09:39:18;;;;;;;;;;;24.80;69.90;;;;;;10348752;28;19940;-69
2023/09/12 09:44:21;;;;;;;;;;;24.80;70.00;;;;;;10362811;28;20388;-68
2023/09/12 09:49:23;;;;;;;;;;;24.80;69.90;;;;;;10365069;28;21271;-69
2023/09/12 09:54:25;;;;;;;;;;;24.80;69.80;;;;;;10350116;28;19934;-68
2023/09/12 09:59:27;;;;;;;;;;;24.90;69.80;;;;;;10338538;28;19934;-65
2023/09/12 10:04:31;;;;;;;;;;;24.90;69.60;;;;;;10354488;28;19941;-65
2023/09/12 10:09:45;;;;;;;;;;;25.00;69.70;;;;;;10365044;28;19940;-65
2023/09/12 10:14:47;;;;;;;;;;;25.00;69.50;;;;;;10353230;28;20040;-65
2023/09/12 10:19:54;;;;;;;;;;;25.00;69.40;;;;;;10348170;28;19934;-66
2023/09/12 10:24:56;;;;;;;;;;;25.10;69.40;;;;;;10348827;28;19940;-65
2023/09/12 10:30:00;;;;;;;;;;;25.10;70.20;;;;;;10340986;28;20437;-66
2023/09/12 10:35:03;;;;;;;;;;;25.10;69.20;;;;;;10352046;28;19934;-65
2023/09/12 10:40:07;;;;;;;;;;;25.20;69.20;;;;;;10332329;28;19934;-65
2023/09/12 10:45:09;;;;;;;;;;;25.20;69.10;;;;;;10334448;28;19934;-66
2023/09/12 10:50:12;;;;;;;;;;;25.20;69.00;;;;;;10356679;28;20716;-65
2023/09/12 10:55:20;;;;;;;;;;;25.30;70.00;;;;;;10355391;28;20028;-65
2023/09/12 11:00:22;;;;;;;;;;;25.30;68.80;;;;;;10351458;28;20317;-65
2023/09/12 11:05:31;;;;;;;;;;;25.30;68.70;;;;;;10345327;28;25821;-65
2023/09/12 11:10:32;;;;;;;;;;;25.40;68.80;;;;;;10366869;28;19933;-68
2023/09/12 11:15:34;;;;;;;;;;;25.40;68.70;;;;;;10347622;28;20024;-69
2023/09/12 11:20:50;;;;;;;;;;;25.40;68.60;;;;;;10344339;28;20020;-69
2023/09/12 11:26:10;;;;;;;;;;;25.40;68.60;;;;;;10350953;28;20365;-68
2023/09/12 11:31:23;;;;;;;;;;;25.40;68.70;;;;;;10361515;28;19938;-68
2023/09/12 11:36:25;;;;;;;;;;;25.30;68.70;;;;;;10356578;28;19941;-69
2023/09/12 11:41:54;;;;;;;;;;;25.30;68.70;;;;;;10342257;28;19938;-69
2023/09/12 11:46:56;;;;;;;;;;;25.40;68.80;;;;;;10332003;28;19935;-68
2023/09/12 11:51:57;;;;;;;;;;;25.40;68.80;;;;;;10347932;28;19941;-68
2023/09/12 11:57:02;;;;;;;;;;;25.30;68.80;;;;;;10354763;28;19988;-68
2023/09/12 12:02:08;;;;;;;;;;;25.30;68.80;;;;;;10346608;28;20744;-67
2023/09/12 12:07:10;;;;;;;;;;;25.30;68.80;;;;;;10346123;28;20059;-68
2023/09/12 12:12:13;;;;;;;;;;;25.30;68.90;;;;;;10365142;28;19934;-68
2023/09/12 12:17:15;;;;;;;;;;;25.30;69.00;;;;;;10358321;28;20451;-68
2023/09/12 12:22:17;;;;;;;;;;;25.30;69.00;;;;;;10363258;28;19934;-69
2023/09/12 12:27:18;;;;;;;;;;;25.30;69.10;;;;;;10363456;28;20387;-68
2023/09/12 12:32:20;;;;;;;;;;;25.30;69.10;;;;;;10348692;28;19945;-69
2023/09/12 12:37:30;;;;;;;;;;;25.30;69.20;;;;;;10362648;28;19940;-68
2023/09/12 12:42:34;;;;;;;;;;;25.20;69.10;;;;;;10362010;28;20044;-66
2023/09/12 12:48:00;;;;;;;;;;;25.20;69.20;;;;;;10361511;28;20360;-68
2023/09/12 12:53:02;;;;;;;;;;;25.20;69.30;;;;;;10380560;28;19941;-69
2023/09/12 12:58:05;;;;;;;;;;;25.30;69.30;;;;;;10357487;28;19965;-69
2023/09/12 13:03:06;;;;;;;;;;;25.20;69.20;;;;;;10355982;28;19949;-68
2023/09/12 13:08:08;;;;;;;;;;;25.20;69.30;;;;;;10351189;28;19934;-68
2023/09/12 13:13:10;;;;;;;;;;;25.20;69.20;;;;;;10364699;28;19941;-69
2023/09/12 13:18:13;;;;;;;;;;;25.20;69.30;;;;;;10338976;28;19973;-69
2023/09/12 13:23:14;;;;;;;;;;;25.20;69.20;;;;;;10339224;28;20480;-69
2023/09/12 13:28:16;;;;;;;;;;;25.30;69.30;;;;;;10359937;28;19934;-68
2023/09/12 13:33:18;;;;;;;;;;;25.30;69.10;;;;;;10361635;28;19933;-68
2023/09/12 13:38:21;;;;;;;;;;;25.30;69.10;;;;;;10350508;28;19940;-69
2023/09/12 13:43:23;;;;;;;;;;;25.30;69.20;;;;;;10353450;28;19941;-68
2023/09/12 13:48:26;;;;;;;;;;;25.30;69.10;;;;;;10348404;28;19956;-68
2023/09/12 13:53:29;;;;;;;;;;;25.30;69.00;;;;;;10339648;28;20325;-68
2023/09/12 13:58:33;;;;;;;;;;;25.20;69.10;;;;;;10367525;28;20383;-69
2023/09/12 14:03:46;;;;;;;;;;;25.20;69.10;;;;;;10360183;28;20305;-69
2023/09/12 14:08:49;;;;;;;;;;;25.20;69.10;;;;;;10346927;28;20122;-67
2023/09/12 14:13:51;;;;;;;;;;;25.20;69.20;;;;;;10361854;28;20020;-69
2023/09/12 14:19:12;;;;;;;;;;;25.20;69.10;;;;;;10358187;28;19934;-68
2023/09/12 14:24:14;;;;;;;;;;;25.20;69.20;;;;;;10366245;28;20583;-69
2023/09/12 14:29:16;;;;;;;;;;;25.20;69.20;;;;;;10352676;28;19934;-68
2023/09/12 14:34:18;;;;;;;;;;;25.20;69.10;;;;;;10368988;28;20031;-67
2023/09/12 14:39:20;;;;;;;;;;;25.20;69.10;;;;;;10355116;28;19934;-69
2023/09/12 14:44:22;;;;;;;;;;;25.20;69.20;;;;;;10346090;28;19940;-68
2023/09/12 14:49:23;;;;;;;;;;;25.20;69.10;;;;;;10367786;28;20459;-69
2023/09/12 14:54:25;;;;;;;;;;;25.20;69.10;;;;;;10349803;28;19968;-68
2023/09/12 14:59:27;;;;;;;;;;;25.20;68.90;;;;;;10351409;28;19937;-69
2023/09/12 15:04:31;;;;;;;;;;;25.20;68.70;;;;;;10349086;28;19933;-69
2023/09/12 15:09:33;;;;;;;;;;;25.20;69.00;;;;;;10378358;28;20218;-68
2023/09/12 15:14:34;;;;;;;;;;;25.20;69.10;;;;;;10365984;28;19934;-69
2023/09/12 15:19:36;;;;;;;;;;;25.10;68.90;;;;;;10349665;28;19940;-69
2023/09/12 15:24:38;;;;;;;;;;;25.10;69.10;;;;;;10366952;28;19938;-68
2023/09/12 15:29:39;;;;;;;;;;;25.10;69.00;;;;;;10357422;28;19940;-69
2023/09/12 15:34:42;;;;;;;;;;;25.10;69.00;;;;;;10342123;28;19933;-69
2023/09/12 15:39:44;;;;;;;;;;;25.10;69.10;;;;;;10339149;28;19934;-68
2023/09/12 15:44:45;;;;;;;;;;;25.10;69.00;;;;;;10346843;28;20417;-69
2023/09/12 15:50:03;;;;;;;;;;;25.10;69.10;;;;;;10354314;28;19933;-68
2023/09/12 15:55:06;;;;;;;;;;;25.10;69.10;;;;;;10330818;28;19941;-68
2023/09/12 16:00:10;;;;;;;;;;;25.00;69.00;;;;;;10330746;28;19979;-69
2023/09/12 16:05:13;;;;;;;;;;;25.10;69.10;;;;;;10361740;28;19934;-68
2023/09/12 16:10:15;;;;;;;;;;;25.10;69.10;;;;;;10357909;28;20411;-68
2023/09/12 16:15:16;;;;;;;;;;;25.10;69.00;;;;;;10360447;28;19938;-67
2023/09/12 16:20:18;;;;;;;;;;;25.10;69.70;;;;;;10357691;28;20705;-68
2023/09/12 16:25:19;;;;;;;;;;;25.20;69.90;;;;;;10345183;28;20159;-71
2023/09/12 16:30:21;;;;;;;;;;;25.30;70.80;;;;;;10348048;28;20393;-67
2023/09/12 16:35:25;;;;;;;;;;;25.30;71.40;;;;;;10362268;28;20412;-68
2023/09/12 16:40:26;;;;;;;;;;;25.40;70.50;;;;;;10348829;28;19944;-68
2023/09/12 16:45:29;;;;;;;;;;;25.40;72.00;;;;;;10342978;28;19976;-67
2023/09/12 16:50:32;;;;;;;;;;;25.40;71.20;;;;;;10370208;28;20275;-67
2023/09/12 16:55:35;;;;;;;;;;;25.50;71.80;;;;;;10355331;28;20500;-69
2023/09/12 17:00:38;;;;;;;;;;;25.50;70.60;;;;;;10372447;28;19934;-68
2023/09/12 17:05:39;;;;;;;;;;;25.60;70.20;;;;;;10361081;28;19934;-68
2023/09/12 17:10:42;;;;;;;;;;;25.60;69.80;;;;;;10356555;28;21476;-69
2023/09/12 17:15:44;;;;;;;;;;;25.60;69.10;;;;;;10355467;28;19933;-69
2023/09/12 17:20:46;;;;;;;;;;;25.60;69.10;;;;;;10344162;28;19940;-66
2023/09/12 17:25:48;;;;;;;;;;;25.50;68.90;;;;;;10373074;28;19945;-68
2023/09/12 17:30:50;;;;;;;;;;;25.40;68.80;;;;;;10346197;28;19933;-67
2023/09/12 17:35:52;;;;;;;;;;;25.30;68.60;;;;;;10343934;28;19933;-64
2023/09/12 17:40:54;;;;;;;;;;;25.30;68.80;;;;;;10329457;28;19938;-63
2023/09/12 17:45:55;;;;;;;;;;;25.30;69.10;;;;;;10332702;28;19934;-64
2023/09/12 17:51:12;;;;;;;;;;;25.30;69.10;;;;;;10311453;28;93236;-63
2023/09/12 17:56:15;;;;;;;;;;;25.30;69.00;;;;;;10337937;28;19941;-62
2023/09/12 18:01:16;;;;;;;;;;;25.20;69.10;;;;;;10337367;28;20487;-63
2023/09/12 18:06:18;;;;;;;;;;;25.20;69.10;;;;;;10344553;28;20840;-63
2023/09/12 18:11:20;;;;;;;;;;;25.30;69.20;;;;;;10356827;28;20121;-64
2023/09/12 18:16:22;;;;;;;;;;;25.20;69.20;;;;;;10342643;28;19945;-63
2023/09/12 18:21:24;;;;;;;;;;;25.20;69.30;;;;;;10327759;28;19937;-64
2023/09/12 18:26:25;;;;;;;;;;;25.20;69.20;;;;;;10337007;28;19933;-64
2023/09/12 18:31:27;;;;;;;;;;;25.20;69.30;;;;;;10340995;28;19934;-64
2023/09/12 18:36:31;;;;;;;;;;;25.20;69.30;;;;;;10336835;28;19981;-64
2023/09/12 18:41:34;;;;;;;;;;;25.20;69.40;;;;;;10340280;28;19933;-63
2023/09/12 18:46:36;;;;;;;;;;;25.20;69.50;;;;;;10343432;28;19934;-63
2023/09/12 18:51:38;;;;;;;;;;;25.20;69.50;;;;;;10336822;28;20376;-62
2023/09/12 18:56:39;;;;;;;;;;;25.20;69.40;;;;;;10356636;28;19940;-63
2023/09/12 19:01:43;;;;;;;;;;;25.20;69.40;;;;;;10343918;28;19941;-64
2023/09/12 19:06:45;;;;;;;;;;;25.20;69.50;;;;;;10347828;28;19934;-64
2023/09/12 19:11:47;;;;;;;;;;;25.20;69.50;;;;;;10334150;28;19938;-64
2023/09/12 19:16:54;;;;;;;;;;;25.20;69.40;;;;;;10344240;28;20305;-64
2023/09/12 19:21:56;;;;;;;;;;;25.20;69.30;;;;;;10333181;28;19988;-64
2023/09/12 19:27:00;;;;;;;;;;;25.20;69.30;;;;;;10331270;28;19940;-64
2023/09/12 19:32:03;;;;;;;;;;;25.20;69.20;;;;;;10342856;28;20080;-64
2023/09/12 19:37:05;;;;;;;;;;;25.20;69.20;;;;;;10355811;28;19934;-63
2023/09/12 19:42:07;;;;;;;;;;;25.30;69.20;;;;;;10335345;28;19940;-64
2023/09/12 19:47:09;;;;;;;;;;;25.20;69.10;;;;;;10341424;28;47788;-64
2023/09/12 19:52:10;;;;;;;;;;;25.20;69.10;;;;;;10354028;28;19934;-65
2023/09/12 19:57:13;;;;;;;;;;;25.20;69.10;;;;;;10347846;28;19937;-64
2023/09/12 20:02:15;;;;;;;;;;;25.20;69.10;;;;;;10345516;28;19942;-65
2023/09/12 20:07:17;;;;;;;;;;;25.30;69.30;;;;;;10353664;28;19934;-65
2023/09/12 20:12:19;;;;;;;;;;;25.20;69.30;;;;;;10359033;28;20065;-65
2023/09/12 20:17:21;;;;;;;;;;;25.30;69.40;;;;;;10345092;28;19934;-65
2023/09/12 20:22:23;;;;;;;;;;;25.30;69.40;;;;;;10357789;28;20384;-65
2023/09/12 20:27:25;;;;;;;;;;;25.30;69.40;;;;;;10355191;28;19968;-65
2023/09/12 20:32:27;;;;;;;;;;;25.30;69.30;;;;;;10365621;28;19941;-67
2023/09/12 20:37:41;;;;;;;;;;;25.30;69.20;;;;;;10370656;28;20026;-66
2023/09/12 20:42:47;;;;;;;;;;;25.30;69.30;;;;;;10363482;28;19957;-66
2023/09/12 20:47:51;;;;;;;;;;;25.20;69.20;;;;;;10343028;28;20344;-67
2023/09/12 20:52:58;;;;;;;;;;;25.20;69.20;;;;;;10365596;28;19933;-68
2023/09/12 20:58:04;;;;;;;;;;;25.20;69.30;;;;;;10364818;28;20043;-68
2023/09/12 21:03:05;;;;;;;;;;;25.20;69.30;;;;;;10360850;28;20412;-68
2023/09/12 21:08:07;;;;;;;;;;;25.20;69.30;;;;;;10358761;28;20309;-68
2023/09/12 21:13:11;;;;;;;;;;;25.10;69.20;;;;;;10364725;28;19934;-68
2023/09/12 21:18:14;;;;;;;;;;;25.10;69.20;;;;;;10376214;28;20012;-67
2023/09/12 21:23:16;;;;;;;;;;;25.10;69.20;;;;;;10371686;28;19934;-65
2023/09/12 21:28:17;;;;;;;;;;;25.10;69.30;;;;;;10362962;28;19938;-66
2023/09/12 21:33:19;;;;;;;;;;;25.10;69.30;;;;;;10355308;28;19933;-65
2023/09/12 21:38:22;;;;;;;;;;;25.10;69.30;;;;;;10346603;28;19941;-65
2023/09/12 21:43:24;;;;;;;;;;;25.10;70.30;;;;;;10346539;28;20048;-65
2023/09/12 21:48:26;;;;;;;;;;;25.00;69.30;;;;;;10361325;28;19941;-65
2023/09/12 21:53:28;;;;;;;;;;;25.00;69.30;;;;;;10342596;28;19957;-68
2023/09/12 21:58:30;;;;;;;;;;;25.00;69.40;;;;;;10336046;28;19934;-65
2023/09/12 22:03:34;;;;;;;;;;;25.00;69.40;;;;;;10360669;28;19941;-66
2023/09/12 22:08:36;;;;;;;;;;;25.00;69.40;;;;;;10352186;28;19933;-65
2023/09/12 22:13:37;;;;;;;;;;;25.00;69.40;;;;;;10360450;28;19934;-66
2023/09/12 22:18:39;;;;;;;;;;;25.00;69.40;;;;;;10359875;28;19934;-66
2023/09/12 22:23:42;;;;;;;;;;;25.00;69.50;;;;;;10346840;28;19941;-66
2023/09/12 22:28:45;;;;;;;;;;;25.00;69.40;;;;;;10339466;28;19934;-66
2023/09/12 22:33:48;;;;;;;;;;;25.00;69.50;;;;;;10347305;28;19934;-66
2023/09/12 22:38:50;;;;;;;;;;;25.00;69.40;;;;;;10344990;28;20172;-66
2023/09/12 22:43:51;;;;;;;;;;;24.90;69.40;;;;;;10336044;28;19934;-65
2023/09/12 22:48:53;;;;;;;;;;;24.90;69.40;;;;;;10356866;28;19945;-65
2023/09/12 22:53:55;;;;;;;;;;;25.00;69.40;;;;;;10338515;28;20630;-66
2023/09/12 22:58:56;;;;;;;;;;;24.90;69.30;;;;;;10357803;28;19941;-67
2023/09/12 23:03:59;;;;;;;;;;;24.90;69.30;;;;;;10348501;28;19941;-67
2023/09/12 23:09:04;;;;;;;;;;;24.90;69.30;;;;;;10355958;28;20307;-67
2023/09/12 23:14:06;;;;;;;;;;;25.00;69.30;;;;;;10347446;28;19934;-66
2023/09/12 23:19:07;;;;;;;;;;;24.90;69.20;;;;;;10358359;28;19957;-67
2023/09/12 23:24:09;;;;;;;;;;;24.90;69.20;;;;;;10351333;28;20396;-66
2023/09/12 23:29:11;;;;;;;;;;;25.00;69.30;;;;;;10350124;28;19934;-67
2023/09/12 23:34:13;;;;;;;;;;;25.00;69.20;;;;;;10347991;28;19941;-67
2023/09/12 23:39:16;;;;;;;;;;;25.00;69.20;;;;;;10358843;28;19969;-66
2023/09/12 23:44:18;;;;;;;;;;;24.90;69.20;;;;;;10355865;28;19934;-67
2023/09/12 23:49:19;;;;;;;;;;;25.00;69.20;;;;;;10361152;28;19940;-67
2023/09/12 23:54:21;;;;;;;;;;;25.00;69.20;;;;;;10355008;28;19981;-67
2023/09/12 23:59:24;;;;;;;;;;;25.00;69.10;;;;;;10364439;28;20393;-67
